sensor_id;sensor_type;location;lat;lon;timestamp;P1;durP1;ratioP1;P2;durP2;ratioP2
55758;SDS011;41678;52.126;20.664;2023-04-24T00:03:35;16.80;;;6.57;;
55758;SDS011;41678;52.126;20.664;2023-04-24T00:08:55;14.32;;;7.22;;
55758;SDS011;41678;52.126;20.664;2023-04-24T00:14:15;17.85;;;6.38;;
55758;SDS011;41678;52.126;20.664;2023-04-24T00:19:35;12.48;;;6.43;;
55758;SDS011;41678;52.126;20.664;2023-04-24T00:24:55;19.95;;;6.63;;
55758;SDS011;41678;52.126;20.664;2023-04-24T00:30:14;18.42;;;7.45;;
55758;SDS011;41678;52.126;20.664;2023-04-24T00:35:34;19.13;;;6.25;;
55758;SDS011;41678;52.126;20.664;2023-04-24T00:40:54;19.52;;;6.88;;
55758;SDS011;41678;52.126;20.664;2023-04-24T00:46:14;17.92;;;7.95;;
55758;SDS011;41678;52.126;20.664;2023-04-24T00:51:33;20.88;;;7.10;;
55758;SDS011;41678;52.126;20.664;2023-04-24T00:56:53;18.80;;;7.20;;
55758;SDS011;41678;52.126;20.664;2023-04-24T01:02:13;16.10;;;8.13;;
55758;SDS011;41678;52.126;20.664;2023-04-24T01:07:34;16.80;;;6.78;;
55758;SDS011;41678;52.126;20.664;2023-04-24T01:12:55;12.87;;;6.60;;
55758;SDS011;41678;52.126;20.664;2023-04-24T01:18:15;17.80;;;7.30;;
55758;SDS011;41678;52.126;20.664;2023-04-24T01:23:35;13.30;;;6.30;;
55758;SDS011;41678;52.126;20.664;2023-04-24T01:28:55;23.27;;;6.90;;
55758;SDS011;41678;52.126;20.664;2023-04-24T01:34:15;18.10;;;6.55;;
55758;SDS011;41678;52.126;20.664;2023-04-24T01:39:36;13.17;;;6.80;;
55758;SDS011;41678;52.126;20.664;2023-04-24T01:44:56;22.88;;;8.05;;
55758;SDS011;41678;52.126;20.664;2023-04-24T01:50:17;23.90;;;7.23;;
55758;SDS011;41678;52.126;20.664;2023-04-24T01:55:38;14.73;;;6.35;;
55758;SDS011;41678;52.126;20.664;2023-04-24T02:00:59;13.63;;;6.22;;
55758;SDS011;41678;52.126;20.664;2023-04-24T02:06:19;16.97;;;7.27;;
55758;SDS011;41678;52.126;20.664;2023-04-24T02:11:39;19.58;;;6.88;;
55758;SDS011;41678;52.126;20.664;2023-04-24T02:16:59;13.68;;;6.88;;
55758;SDS011;41678;52.126;20.664;2023-04-24T02:22:20;20.37;;;6.83;;
55758;SDS011;41678;52.126;20.664;2023-04-24T02:27:39;17.30;;;7.82;;
55758;SDS011;41678;52.126;20.664;2023-04-24T02:32:59;14.15;;;6.95;;
55758;SDS011;41678;52.126;20.664;2023-04-24T02:38:20;24.60;;;7.13;;
55758;SDS011;41678;52.126;20.664;2023-04-24T02:43:40;15.35;;;7.03;;
55758;SDS011;41678;52.126;20.664;2023-04-24T02:48:59;17.60;;;7.65;;
55758;SDS011;41678;52.126;20.664;2023-04-24T02:54:19;22.08;;;7.93;;
55758;SDS011;41678;52.126;20.664;2023-04-24T02:59:39;17.40;;;7.65;;
55758;SDS011;41678;52.126;20.664;2023-04-24T03:04:58;14.63;;;7.55;;
55758;SDS011;41678;52.126;20.664;2023-04-24T03:10:19;16.02;;;7.25;;
55758;SDS011;41678;52.126;20.664;2023-04-24T03:15:39;17.48;;;7.78;;
55758;SDS011;41678;52.126;20.664;2023-04-24T03:20:58;16.45;;;7.43;;
55758;SDS011;41678;52.126;20.664;2023-04-24T03:26:18;17.50;;;7.63;;
55758;SDS011;41678;52.126;20.664;2023-04-24T03:31:52;12.95;;;6.90;;
55758;SDS011;41678;52.126;20.664;2023-04-24T03:37:13;17.08;;;8.43;;
55758;SDS011;41678;52.126;20.664;2023-04-24T03:42:37;18.77;;;6.75;;
55758;SDS011;41678;52.126;20.664;2023-04-24T03:47:57;13.65;;;7.53;;
55758;SDS011;41678;52.126;20.664;2023-04-24T03:53:17;19.70;;;7.88;;
55758;SDS011;41678;52.126;20.664;2023-04-24T03:58:37;26.17;;;7.97;;
55758;SDS011;41678;52.126;20.664;2023-04-24T04:03:58;27.25;;;7.95;;
55758;SDS011;41678;52.126;20.664;2023-04-24T04:14:39;17.23;;;7.57;;
55758;SDS011;41678;52.126;20.664;2023-04-24T04:19:59;13.80;;;7.03;;
55758;SDS011;41678;52.126;20.664;2023-04-24T04:25:19;15.93;;;7.13;;
55758;SDS011;41678;52.126;20.664;2023-04-24T04:30:40;15.23;;;7.00;;
55758;SDS011;41678;52.126;20.664;2023-04-24T04:36:00;17.75;;;7.78;;
55758;SDS011;41678;52.126;20.664;2023-04-24T04:41:22;14.07;;;6.70;;
55758;SDS011;41678;52.126;20.664;2023-04-24T04:46:42;13.25;;;6.55;;
55758;SDS011;41678;52.126;20.664;2023-04-24T04:52:14;23.35;;;7.88;;
55758;SDS011;41678;52.126;20.664;2023-04-24T04:57:35;15.88;;;8.02;;
55758;SDS011;41678;52.126;20.664;2023-04-24T05:02:55;22.33;;;7.70;;
55758;SDS011;41678;52.126;20.664;2023-04-24T05:08:16;16.60;;;7.10;;
55758;SDS011;41678;52.126;20.664;2023-04-24T05:13:36;17.50;;;7.43;;
55758;SDS011;41678;52.126;20.664;2023-04-24T05:18:59;21.60;;;7.60;;
55758;SDS011;41678;52.126;20.664;2023-04-24T05:24:24;23.08;;;7.88;;
55758;SDS011;41678;52.126;20.664;2023-04-24T05:30:06;14.43;;;6.73;;
55758;SDS011;41678;52.126;20.664;2023-04-24T05:35:27;13.60;;;7.20;;
55758;SDS011;41678;52.126;20.664;2023-04-24T05:40:46;16.33;;;6.38;;
55758;SDS011;41678;52.126;20.664;2023-04-24T05:46:07;21.00;;;7.18;;
55758;SDS011;41678;52.126;20.664;2023-04-24T05:51:27;27.60;;;7.57;;
55758;SDS011;41678;52.126;20.664;2023-04-24T05:56:47;18.75;;;6.30;;
55758;SDS011;41678;52.126;20.664;2023-04-24T06:02:15;18.05;;;6.38;;
55758;SDS011;41678;52.126;20.664;2023-04-24T06:07:37;20.00;;;6.10;;
55758;SDS011;41678;52.126;20.664;2023-04-24T06:12:59;17.10;;;6.05;;
55758;SDS011;41678;52.126;20.664;2023-04-24T06:18:20;14.32;;;6.35;;
55758;SDS011;41678;52.126;20.664;2023-04-24T06:23:41;18.60;;;6.30;;
55758;SDS011;41678;52.126;20.664;2023-04-24T06:29:01;21.77;;;6.10;;
55758;SDS011;41678;52.126;20.664;2023-04-24T06:34:21;17.00;;;6.60;;
55758;SDS011;41678;52.126;20.664;2023-04-24T06:39:41;21.02;;;6.75;;
55758;SDS011;41678;52.126;20.664;2023-04-24T06:45:01;13.32;;;6.10;;
55758;SDS011;41678;52.126;20.664;2023-04-24T06:50:21;15.27;;;6.53;;
55758;SDS011;41678;52.126;20.664;2023-04-24T06:55:41;15.48;;;5.30;;
55758;SDS011;41678;52.126;20.664;2023-04-24T07:01:02;14.77;;;6.10;;
55758;SDS011;41678;52.126;20.664;2023-04-24T07:06:21;19.48;;;5.50;;
55758;SDS011;41678;52.126;20.664;2023-04-24T07:11:42;13.23;;;6.07;;
55758;SDS011;41678;52.126;20.664;2023-04-24T07:17:02;13.82;;;5.90;;
55758;SDS011;41678;52.126;20.664;2023-04-24T07:22:22;14.25;;;6.30;;
55758;SDS011;41678;52.126;20.664;2023-04-24T07:27:42;18.33;;;6.25;;
55758;SDS011;41678;52.126;20.664;2023-04-24T07:33:02;13.60;;;6.43;;
55758;SDS011;41678;52.126;20.664;2023-04-24T07:38:21;26.40;;;6.75;;
55758;SDS011;41678;52.126;20.664;2023-04-24T07:43:41;21.98;;;6.93;;
55758;SDS011;41678;52.126;20.664;2023-04-24T07:49:01;17.60;;;6.90;;
55758;SDS011;41678;52.126;20.664;2023-04-24T07:54:21;17.58;;;6.38;;
55758;SDS011;41678;52.126;20.664;2023-04-24T07:59:41;18.60;;;7.35;;
55758;SDS011;41678;52.126;20.664;2023-04-24T08:05:01;17.17;;;6.88;;
55758;SDS011;41678;52.126;20.664;2023-04-24T08:15:42;24.55;;;6.88;;
55758;SDS011;41678;52.126;20.664;2023-04-24T08:21:01;12.40;;;5.93;;
55758;SDS011;41678;52.126;20.664;2023-04-24T08:26:20;17.58;;;5.38;;
55758;SDS011;41678;52.126;20.664;2023-04-24T08:31:40;12.85;;;5.78;;
55758;SDS011;41678;52.126;20.664;2023-04-24T08:36:59;12.07;;;6.10;;
55758;SDS011;41678;52.126;20.664;2023-04-24T08:42:20;13.48;;;5.75;;
55758;SDS011;41678;52.126;20.664;2023-04-24T08:47:40;16.60;;;5.37;;
55758;SDS011;41678;52.126;20.664;2023-04-24T08:53:01;9.50;;;5.38;;
55758;SDS011;41678;52.126;20.664;2023-04-24T08:58:21;16.63;;;5.05;;
55758;SDS011;41678;52.126;20.664;2023-04-24T09:03:42;15.00;;;6.05;;
55758;SDS011;41678;52.126;20.664;2023-04-24T09:09:02;11.43;;;5.55;;
55758;SDS011;41678;52.126;20.664;2023-04-24T09:14:22;16.07;;;6.23;;
55758;SDS011;41678;52.126;20.664;2023-04-24T09:19:43;12.95;;;6.50;;
55758;SDS011;41678;52.126;20.664;2023-04-24T09:25:06;15.27;;;5.78;;
55758;SDS011;41678;52.126;20.664;2023-04-24T09:30:28;10.15;;;4.88;;
55758;SDS011;41678;52.126;20.664;2023-04-24T09:35:49;14.13;;;5.37;;
55758;SDS011;41678;52.126;20.664;2023-04-24T09:41:13;17.23;;;5.45;;
55758;SDS011;41678;52.126;20.664;2023-04-24T09:46:33;11.90;;;5.00;;
55758;SDS011;41678;52.126;20.664;2023-04-24T09:52:07;16.05;;;5.80;;
55758;SDS011;41678;52.126;20.664;2023-04-24T09:57:28;15.35;;;6.15;;
55758;SDS011;41678;52.126;20.664;2023-04-24T10:02:53;11.05;;;5.13;;
55758;SDS011;41678;52.126;20.664;2023-04-24T10:08:13;11.38;;;4.68;;
55758;SDS011;41678;52.126;20.664;2023-04-24T10:13:33;10.13;;;5.10;;
55758;SDS011;41678;52.126;20.664;2023-04-24T10:18:54;11.75;;;5.15;;
55758;SDS011;41678;52.126;20.664;2023-04-24T10:24:15;12.80;;;4.70;;
55758;SDS011;41678;52.126;20.664;2023-04-24T10:29:40;10.15;;;4.65;;
55758;SDS011;41678;52.126;20.664;2023-04-24T10:35:00;11.70;;;4.03;;
55758;SDS011;41678;52.126;20.664;2023-04-24T10:40:25;9.90;;;4.20;;
55758;SDS011;41678;52.126;20.664;2023-04-24T10:46:00;12.32;;;5.47;;
55758;SDS011;41678;52.126;20.664;2023-04-24T10:51:21;9.95;;;3.92;;
55758;SDS011;41678;52.126;20.664;2023-04-24T10:56:42;15.55;;;5.55;;
55758;SDS011;41678;52.126;20.664;2023-04-24T11:02:01;8.48;;;4.20;;
55758;SDS011;41678;52.126;20.664;2023-04-24T11:07:21;9.63;;;4.50;;
55758;SDS011;41678;52.126;20.664;2023-04-24T11:12:42;9.32;;;4.53;;
55758;SDS011;41678;52.126;20.664;2023-04-24T11:18:02;12.53;;;4.67;;
55758;SDS011;41678;52.126;20.664;2023-04-24T11:23:22;9.65;;;4.30;;
55758;SDS011;41678;52.126;20.664;2023-04-24T11:28:48;10.98;;;4.28;;
55758;SDS011;41678;52.126;20.664;2023-04-24T11:34:12;8.73;;;4.60;;
55758;SDS011;41678;52.126;20.664;2023-04-24T11:39:36;9.18;;;4.28;;
55758;SDS011;41678;52.126;20.664;2023-04-24T11:44:56;9.55;;;3.95;;
55758;SDS011;41678;52.126;20.664;2023-04-24T11:50:16;9.52;;;4.78;;
55758;SDS011;41678;52.126;20.664;2023-04-24T11:55:37;8.13;;;3.78;;
55758;SDS011;41678;52.126;20.664;2023-04-24T12:00:56;12.70;;;4.82;;
55758;SDS011;41678;52.126;20.664;2023-04-24T12:06:17;18.70;;;4.78;;
55758;SDS011;41678;52.126;20.664;2023-04-24T12:11:38;8.68;;;3.95;;
55758;SDS011;41678;52.126;20.664;2023-04-24T12:17:12;8.73;;;4.13;;
55758;SDS011;41678;52.126;20.664;2023-04-24T12:22:45;11.65;;;3.95;;
55758;SDS011;41678;52.126;20.664;2023-04-24T12:28:15;12.95;;;4.00;;
55758;SDS011;41678;52.126;20.664;2023-04-24T12:33:35;12.35;;;3.78;;
55758;SDS011;41678;52.126;20.664;2023-04-24T12:38:55;14.97;;;2.77;;
55758;SDS011;41678;52.126;20.664;2023-04-24T12:44:14;12.85;;;2.65;;
55758;SDS011;41678;52.126;20.664;2023-04-24T12:49:34;14.38;;;2.45;;
55758;SDS011;41678;52.126;20.664;2023-04-24T12:54:55;12.65;;;2.30;;
55758;SDS011;41678;52.126;20.664;2023-04-24T13:00:16;18.27;;;3.22;;
55758;SDS011;41678;52.126;20.664;2023-04-24T13:05:36;9.48;;;2.90;;
55758;SDS011;41678;52.126;20.664;2023-04-24T13:10:55;17.15;;;2.70;;
55758;SDS011;41678;52.126;20.664;2023-04-24T13:16:15;10.77;;;2.83;;
55758;SDS011;41678;52.126;20.664;2023-04-24T13:21:35;9.10;;;2.40;;
55758;SDS011;41678;52.126;20.664;2023-04-24T13:26:55;5.90;;;2.20;;
55758;SDS011;41678;52.126;20.664;2023-04-24T13:37:36;7.00;;;2.42;;
55758;SDS011;41678;52.126;20.664;2023-04-24T13:42:56;6.93;;;2.88;;
55758;SDS011;41678;52.126;20.664;2023-04-24T13:48:15;9.63;;;2.92;;
55758;SDS011;41678;52.126;20.664;2023-04-24T13:53:35;10.38;;;3.38;;
55758;SDS011;41678;52.126;20.664;2023-04-24T13:58:57;10.43;;;2.63;;
55758;SDS011;41678;52.126;20.664;2023-04-24T14:04:16;11.15;;;2.60;;
55758;SDS011;41678;52.126;20.664;2023-04-24T14:09:36;17.25;;;2.50;;
55758;SDS011;41678;52.126;20.664;2023-04-24T14:14:56;5.68;;;2.45;;
55758;SDS011;41678;52.126;20.664;2023-04-24T14:20:16;15.90;;;2.90;;
55758;SDS011;41678;52.126;20.664;2023-04-24T14:25:35;10.68;;;2.35;;
55758;SDS011;41678;52.126;20.664;2023-04-24T14:30:55;13.53;;;2.93;;
55758;SDS011;41678;52.126;20.664;2023-04-24T14:36:15;5.53;;;2.60;;
55758;SDS011;41678;52.126;20.664;2023-04-24T14:41:34;7.13;;;2.17;;
55758;SDS011;41678;52.126;20.664;2023-04-24T14:46:54;7.67;;;2.70;;
55758;SDS011;41678;52.126;20.664;2023-04-24T14:52:14;10.07;;;2.33;;
55758;SDS011;41678;52.126;20.664;2023-04-24T15:02:55;9.35;;;2.70;;
55758;SDS011;41678;52.126;20.664;2023-04-24T15:08:15;6.45;;;2.55;;
55758;SDS011;41678;52.126;20.664;2023-04-24T15:13:34;6.95;;;2.30;;
55758;SDS011;41678;52.126;20.664;2023-04-24T15:18:54;8.73;;;2.67;;
55758;SDS011;41678;52.126;20.664;2023-04-24T15:24:16;5.78;;;2.42;;
55758;SDS011;41678;52.126;20.664;2023-04-24T15:29:36;8.40;;;3.42;;
55758;SDS011;41678;52.126;20.664;2023-04-24T15:40:16;7.90;;;2.33;;
55758;SDS011;41678;52.126;20.664;2023-04-24T15:45:35;6.18;;;2.53;;
55758;SDS011;41678;52.126;20.664;2023-04-24T15:50:55;6.18;;;2.30;;
55758;SDS011;41678;52.126;20.664;2023-04-24T15:56:15;8.52;;;3.15;;
55758;SDS011;41678;52.126;20.664;2023-04-24T16:01:34;8.63;;;2.83;;
55758;SDS011;41678;52.126;20.664;2023-04-24T16:06:54;6.55;;;3.03;;
55758;SDS011;41678;52.126;20.664;2023-04-24T16:12:15;8.77;;;3.08;;
55758;SDS011;41678;52.126;20.664;2023-04-24T16:17:35;7.60;;;2.63;;
55758;SDS011;41678;52.126;20.664;2023-04-24T16:22:54;9.85;;;2.80;;
55758;SDS011;41678;52.126;20.664;2023-04-24T16:28:14;6.10;;;2.60;;
55758;SDS011;41678;52.126;20.664;2023-04-24T16:33:34;7.50;;;3.00;;
55758;SDS011;41678;52.126;20.664;2023-04-24T16:38:53;8.55;;;3.33;;
55758;SDS011;41678;52.126;20.664;2023-04-24T16:44:13;12.40;;;2.95;;
55758;SDS011;41678;52.126;20.664;2023-04-24T16:49:33;17.83;;;4.13;;
55758;SDS011;41678;52.126;20.664;2023-04-24T16:54:53;7.40;;;3.50;;
55758;SDS011;41678;52.126;20.664;2023-04-24T17:00:13;8.02;;;3.78;;
55758;SDS011;41678;52.126;20.664;2023-04-24T17:05:33;21.43;;;4.23;;
55758;SDS011;41678;52.126;20.664;2023-04-24T17:10:52;20.60;;;3.80;;
55758;SDS011;41678;52.126;20.664;2023-04-24T17:16:12;26.52;;;4.72;;
55758;SDS011;41678;52.126;20.664;2023-04-24T17:21:31;22.25;;;5.15;;
55758;SDS011;41678;52.126;20.664;2023-04-24T17:26:51;11.95;;;5.22;;
55758;SDS011;41678;52.126;20.664;2023-04-24T17:32:12;13.27;;;4.28;;
55758;SDS011;41678;52.126;20.664;2023-04-24T17:37:32;17.95;;;4.88;;
55758;SDS011;41678;52.126;20.664;2023-04-24T17:42:51;16.00;;;5.28;;
55758;SDS011;41678;52.126;20.664;2023-04-24T17:48:11;13.65;;;6.07;;
55758;SDS011;41678;52.126;20.664;2023-04-24T17:53:32;16.88;;;6.03;;
55758;SDS011;41678;52.126;20.664;2023-04-24T17:58:51;22.73;;;6.25;;
55758;SDS011;41678;52.126;20.664;2023-04-24T18:04:11;12.98;;;5.75;;
55758;SDS011;41678;52.126;20.664;2023-04-24T18:09:31;17.27;;;6.18;;
55758;SDS011;41678;52.126;20.664;2023-04-24T18:14:51;13.88;;;5.65;;
55758;SDS011;41678;52.126;20.664;2023-04-24T18:20:14;16.35;;;5.50;;
55758;SDS011;41678;52.126;20.664;2023-04-24T18:25:34;12.93;;;5.50;;
55758;SDS011;41678;52.126;20.664;2023-04-24T18:30:54;15.18;;;5.25;;
55758;SDS011;41678;52.126;20.664;2023-04-24T18:36:13;20.60;;;7.30;;
55758;SDS011;41678;52.126;20.664;2023-04-24T18:41:33;16.73;;;6.63;;
55758;SDS011;41678;52.126;20.664;2023-04-24T18:46:53;25.63;;;8.47;;
55758;SDS011;41678;52.126;20.664;2023-04-24T18:52:13;21.65;;;8.27;;
55758;SDS011;41678;52.126;20.664;2023-04-24T18:57:32;22.45;;;10.15;;
55758;SDS011;41678;52.126;20.664;2023-04-24T19:02:52;26.67;;;10.48;;
55758;SDS011;41678;52.126;20.664;2023-04-24T19:08:13;16.55;;;7.75;;
55758;SDS011;41678;52.126;20.664;2023-04-24T19:13:32;21.67;;;9.32;;
55758;SDS011;41678;52.126;20.664;2023-04-24T19:18:52;25.52;;;7.72;;
55758;SDS011;41678;52.126;20.664;2023-04-24T19:24:11;17.73;;;6.53;;
55758;SDS011;41678;52.126;20.664;2023-04-24T19:29:31;13.20;;;5.93;;
55758;SDS011;41678;52.126;20.664;2023-04-24T19:34:51;12.30;;;5.82;;
55758;SDS011;41678;52.126;20.664;2023-04-24T19:40:11;15.88;;;6.35;;
55758;SDS011;41678;52.126;20.664;2023-04-24T19:45:31;10.05;;;5.65;;
55758;SDS011;41678;52.126;20.664;2023-04-24T19:50:50;18.63;;;7.38;;
55758;SDS011;41678;52.126;20.664;2023-04-24T19:56:11;25.45;;;8.27;;
55758;SDS011;41678;52.126;20.664;2023-04-24T20:01:30;24.10;;;8.95;;
55758;SDS011;41678;52.126;20.664;2023-04-24T20:06:50;12.77;;;6.47;;
55758;SDS011;41678;52.126;20.664;2023-04-24T20:12:10;24.30;;;7.10;;
55758;SDS011;41678;52.126;20.664;2023-04-24T20:17:30;15.70;;;6.07;;
55758;SDS011;41678;52.126;20.664;2023-04-24T20:22:50;15.70;;;6.03;;
55758;SDS011;41678;52.126;20.664;2023-04-24T20:28:09;12.30;;;5.50;;
55758;SDS011;41678;52.126;20.664;2023-04-24T20:33:29;14.00;;;5.85;;
55758;SDS011;41678;52.126;20.664;2023-04-24T20:38:48;12.00;;;5.28;;
55758;SDS011;41678;52.126;20.664;2023-04-24T20:44:07;17.48;;;7.10;;
55758;SDS011;41678;52.126;20.664;2023-04-24T20:49:27;16.20;;;6.28;;
55758;SDS011;41678;52.126;20.664;2023-04-24T20:54:46;19.00;;;6.70;;
55758;SDS011;41678;52.126;20.664;2023-04-24T21:00:06;12.50;;;6.72;;
55758;SDS011;41678;52.126;20.664;2023-04-24T21:05:26;12.82;;;5.78;;
55758;SDS011;41678;52.126;20.664;2023-04-24T21:10:46;16.23;;;6.20;;
55758;SDS011;41678;52.126;20.664;2023-04-24T21:16:05;12.35;;;5.78;;
55758;SDS011;41678;52.126;20.664;2023-04-24T21:21:25;10.98;;;5.30;;
55758;SDS011;41678;52.126;20.664;2023-04-24T21:26:45;13.43;;;6.00;;
55758;SDS011;41678;52.126;20.664;2023-04-24T21:32:05;12.73;;;6.38;;
55758;SDS011;41678;52.126;20.664;2023-04-24T21:37:25;14.93;;;6.22;;
55758;SDS011;41678;52.126;20.664;2023-04-24T21:42:45;14.40;;;5.63;;
55758;SDS011;41678;52.126;20.664;2023-04-24T21:48:05;14.40;;;6.63;;
55758;SDS011;41678;52.126;20.664;2023-04-24T21:53:24;12.18;;;6.25;;
55758;SDS011;41678;52.126;20.664;2023-04-24T21:58:44;10.80;;;6.25;;
55758;SDS011;41678;52.126;20.664;2023-04-24T22:04:04;13.20;;;7.28;;
55758;SDS011;41678;52.126;20.664;2023-04-24T22:09:24;13.30;;;6.57;;
55758;SDS011;41678;52.126;20.664;2023-04-24T22:14:44;16.60;;;7.00;;
55758;SDS011;41678;52.126;20.664;2023-04-24T22:20:04;15.50;;;7.93;;
55758;SDS011;41678;52.126;20.664;2023-04-24T22:25:25;29.20;;;10.13;;
55758;SDS011;41678;52.126;20.664;2023-04-24T22:30:44;23.27;;;10.20;;
55758;SDS011;41678;52.126;20.664;2023-04-24T22:36:04;14.27;;;7.65;;
55758;SDS011;41678;52.126;20.664;2023-04-24T22:41:24;14.15;;;8.02;;
55758;SDS011;41678;52.126;20.664;2023-04-24T22:46:44;25.58;;;8.88;;
55758;SDS011;41678;52.126;20.664;2023-04-24T22:52:05;16.70;;;8.23;;
55758;SDS011;41678;52.126;20.664;2023-04-24T22:57:26;16.48;;;8.65;;
55758;SDS011;41678;52.126;20.664;2023-04-24T23:02:47;20.02;;;8.55;;
55758;SDS011;41678;52.126;20.664;2023-04-24T23:08:07;15.85;;;8.18;;
55758;SDS011;41678;52.126;20.664;2023-04-24T23:13:26;19.23;;;8.60;;
55758;SDS011;41678;52.126;20.664;2023-04-24T23:18:46;17.08;;;8.32;;
55758;SDS011;41678;52.126;20.664;2023-04-24T23:24:06;19.15;;;7.88;;
55758;SDS011;41678;52.126;20.664;2023-04-24T23:29:26;14.60;;;8.75;;
55758;SDS011;41678;52.126;20.664;2023-04-24T23:34:46;13.98;;;8.20;;
55758;SDS011;41678;52.126;20.664;2023-04-24T23:40:06;13.55;;;7.22;;
55758;SDS011;41678;52.126;20.664;2023-04-24T23:45:28;16.08;;;7.78;;
55758;SDS011;41678;52.126;20.664;2023-04-24T23:50:47;17.05;;;8.48;;
55758;SDS011;41678;52.126;20.664;2023-04-24T23:56:06;14.13;;;7.90;;
